Time;durP1;ratioP1;P1;durP2;ratioP2;P2;SDS_P1;SDS_P2;PMS_P1;PMS_P2;Temp;Humidity;BMP_temperature;BMP_pressure;BME280_temperature;BME280_humidity;BME280_pressure;Samples;Min_cycle;Max_cycle;Signal;HPM_P1;HPM_P2
2022/10/25 00:01:32;;;;;;;18.17;10.63;;;;;;;15.59;75.82;99889.78;5074592;28;20188;-68
2022/10/25 00:04:00;;;;;;;19.97;10.93;;;;;;;15.60;75.81;99888.75;5074126;28;20729;-69
2022/10/25 00:06:26;;;;;;;22.67;10.47;;;;;;;15.58;75.58;99890.00;5074275;28;20223;-69
2022/10/25 00:08:53;;;;;;;18.23;10.90;;;;;;;15.55;76.17;99880.56;5075268;28;20191;-68
2022/10/25 00:11:22;;;;;;;23.13;11.43;;;;;;;15.54;76.18;99878.09;5074252;28;20224;-68
2022/10/25 00:13:50;;;;;;;17.60;11.43;;;;;;;15.51;76.21;99874.00;5073921;28;20659;-68
2022/10/25 00:16:19;;;;;;;17.80;11.47;;;;;;;15.45;76.78;99882.09;5073677;28;20196;-69
2022/10/25 00:18:45;;;;;;;19.80;11.20;;;;;;;15.47;77.06;99878.16;5074760;28;20225;-68
2022/10/25 00:21:13;;;;;;;22.23;10.43;;;;;;;15.45;76.66;99869.50;5073821;28;20713;-69
2022/10/25 00:23:40;;;;;;;24.47;11.80;;;;;;;15.44;76.58;99873.22;5075000;28;20196;-69
2022/10/25 00:26:09;;;;;;;18.50;11.87;;;;;;;15.47;76.48;99875.47;5073974;28;20576;-70
2022/10/25 00:28:36;;;;;;;24.47;10.40;;;;;;;15.46;76.06;99875.69;5073687;28;20188;-69
2022/10/25 00:31:04;;;;;;;22.00;11.27;;;;;;;15.45;75.92;99874.03;5073569;28;20622;-69
2022/10/25 00:33:32;;;;;;;18.87;11.00;;;;;;;15.45;76.23;99866.81;5073895;28;20192;-70
2022/10/25 00:36:04;;;;;;;21.37;10.83;;;;;;;15.43;76.45;99871.59;5073477;28;20195;-69
2022/10/25 00:38:32;;;;;;;21.23;10.73;;;;;;;15.44;75.98;99873.22;5074114;28;20710;-70
2022/10/25 00:41:00;;;;;;;19.23;10.00;;;;;;;15.45;76.04;99864.13;5073407;28;20722;-69
2022/10/25 00:43:34;;;;;;;24.83;11.10;;;;;;;15.44;76.16;99862.50;5074075;28;20313;-68
2022/10/25 00:46:05;;;;;;;19.13;10.63;;;;;;;15.40;76.32;99861.31;5073704;28;20219;-69
2022/10/25 00:48:32;;;;;;;17.83;10.17;;;;;;;15.37;76.69;99867.13;5073697;28;20250;-69
2022/10/25 00:50:59;;;;;;;20.07;10.63;;;;;;;15.37;76.54;99860.94;5073670;28;20261;-68
2022/10/25 00:53:31;;;;;;;23.37;10.23;;;;;;;15.39;76.39;99857.00;5073266;28;20728;-68
2022/10/25 00:56:03;;;;;;;18.20;9.90;;;;;;;15.40;76.31;99850.59;5073695;28;20302;-68
2022/10/25 00:58:33;;;;;;;19.87;10.07;;;;;;;15.38;76.79;99859.88;5073195;28;20188;-70
2022/10/25 01:01:01;;;;;;;20.67;10.10;;;;;;;15.38;76.69;99862.56;5073449;28;20188;-70
2022/10/25 01:03:28;;;;;;;18.80;10.47;;;;;;;15.34;77.13;99856.84;5073032;28;20196;-70
2022/10/25 01:05:58;;;;;;;29.47;11.03;;;;;;;15.29;77.13;99859.31;5073130;28;20297;-70
2022/10/25 01:08:25;;;;;;;18.80;9.80;;;;;;;15.30;77.15;99860.94;5072941;28;20234;-69
2022/10/25 01:10:52;;;;;;;19.60;9.90;;;;;;;15.31;76.46;99859.06;5072869;28;20322;-67
2022/10/25 01:13:20;;;;;;;24.97;11.13;;;;;;;15.28;76.85;99857.66;5073171;28;20233;-69
2022/10/25 01:15:58;;;;;;;21.60;10.50;;;;;;;15.27;77.14;99856.03;5073183;28;20192;-70
2022/10/25 01:18:35;;;;;;;19.77;10.17;;;;;;;15.16;77.47;99858.59;5072861;28;20237;-68
2022/10/25 01:21:37;;;;;;;18.57;10.40;;;;;;;15.18;77.08;99860.00;5073040;28;20187;-71
2022/10/25 01:24:31;;;;;;;18.67;10.37;;;;;;;15.13;77.29;99849.13;5062711;28;20681;-71
2022/10/25 01:27:29;;;;;;;21.63;9.83;;;;;;;15.14;77.79;99856.13;5071860;28;20203;-70
2022/10/25 01:30:10;;;;;;;18.43;9.90;;;;;;;15.10;77.38;99862.94;5043919;28;20254;-70
2022/10/25 01:32:44;;;;;;;29.50;11.13;;;;;;;15.06;77.02;99863.56;5053032;28;20238;-69
2022/10/25 01:35:19;;;;;;;17.27;9.30;;;;;;;15.05;77.14;99856.59;5052899;28;20189;-71
2022/10/25 01:37:57;;;;;;;21.37;10.43;;;;;;;15.05;77.08;99851.25;5053609;28;20193;-68
2022/10/25 01:40:32;;;;;;;18.23;9.40;;;;;;;15.02;77.39;99847.16;5052950;28;20246;-68
2022/10/25 01:43:08;;;;;;;22.50;9.20;;;;;;;14.98;77.06;99862.00;5052401;28;20238;-68
2022/10/25 01:45:42;;;;;;;19.80;8.47;;;;;;;14.87;77.35;99853.84;5052809;28;20187;-68
2022/10/25 01:48:15;;;;;;;17.80;8.17;;;;;;;14.80;77.81;99853.88;5052839;28;20266;-69
2022/10/25 01:50:45;;;;;;;24.63;8.27;;;;;;;14.81;77.95;99854.69;5053221;28;20188;-68
2022/10/25 01:53:12;;;;;;;18.30;7.90;;;;;;;14.67;78.16;99848.56;5052568;28;20185;-69
2022/10/25 01:55:47;;;;;;;24.23;7.33;;;;;;;14.65;78.48;99850.66;5052051;28;20192;-69
2022/10/25 01:58:28;;;;;;;19.50;7.17;;;;;;;14.63;78.76;99852.69;5052218;28;20246;-70
2022/10/25 02:01:03;;;;;;;14.30;7.50;;;;;;;14.65;78.70;99849.81;5052636;28;20627;-69
2022/10/25 02:03:39;;;;;;;15.57;7.70;;;;;;;14.69;78.57;99845.69;5052405;28;20189;-70
2022/10/25 02:06:18;;;;;;;16.30;7.60;;;;;;;14.70;78.55;99837.47;5052887;28;20184;-70
2022/10/25 02:08:48;;;;;;;16.27;7.27;;;;;;;14.71;78.59;99833.75;5052097;28;20181;-70
2022/10/25 02:11:22;;;;;;;16.37;7.90;;;;;;;14.72;78.43;99831.91;5052707;28;20236;-69
2022/10/25 02:13:59;;;;;;;15.73;7.10;;;;;;;14.71;78.75;99825.72;5053082;28;20189;-69
2022/10/25 02:16:28;;;;;;;20.23;7.57;;;;;;;14.69;78.33;99819.78;5051839;28;20279;-69
2022/10/25 02:19:01;;;;;;;14.10;7.53;;;;;;;14.70;78.84;99821.41;5052404;28;20731;-70
2022/10/25 02:21:31;;;;;;;18.13;7.63;;;;;;;14.72;78.26;99824.72;5051740;28;20188;-70
2022/10/25 02:23:59;;;;;;;11.47;7.47;;;;;;;14.73;78.22;99831.69;5052429;28;20184;-69
2022/10/25 02:26:27;;;;;;;12.77;7.67;;;;;;;14.76;78.56;99841.97;5066723;28;20277;-69
2022/10/25 02:28:54;;;;;;;23.47;7.90;;;;;;;14.73;78.10;99846.91;5071651;28;20667;-69
2022/10/25 02:31:23;;;;;;;14.87;7.87;;;;;;;14.69;77.93;99841.16;5071563;28;20191;-70
2022/10/25 02:33:50;;;;;;;12.83;7.57;;;;;;;14.69;77.46;99840.34;5071761;28;20195;-69
2022/10/25 02:36:20;;;;;;;13.77;7.53;;;;;;;14.60;78.05;99837.09;5071621;28;20195;-69
2022/10/25 02:38:49;;;;;;;22.77;8.07;;;;;;;14.63;78.34;99830.50;5073547;28;20192;-69
2022/10/25 02:41:16;;;;;;;19.20;8.30;;;;;;;14.64;78.10;99827.63;5076031;28;20222;-68
2022/10/25 02:43:43;;;;;;;19.97;8.23;;;;;;;14.67;78.13;99843.22;5076260;28;20192;-69
2022/10/25 02:46:12;;;;;;;19.33;7.80;;;;;;;14.64;78.40;99848.19;5075849;28;20336;-69
2022/10/25 02:48:39;;;;;;;11.70;7.30;;;;;;;14.59;78.91;99840.78;5075695;28;20196;-69
2022/10/25 02:51:06;;;;;;;20.80;8.87;;;;;;;14.60;78.92;99834.44;5075548;28;20671;-69
2022/10/25 02:53:35;;;;;;;21.10;8.10;;;;;;;14.60;78.40;99842.47;5075855;28;20628;-68
2022/10/25 02:56:04;;;;;;;22.03;7.70;;;;;;;14.61;78.51;99844.09;5075793;28;20249;-69
2022/10/25 02:58:33;;;;;;;25.10;8.07;;;;;;;14.61;78.85;99844.09;5075426;28;20200;-68
2022/10/25 03:01:00;;;;;;;15.77;7.17;;;;;;;14.56;79.21;99846.59;5075816;28;20228;-68
2022/10/25 03:03:28;;;;;;;21.30;8.13;;;;;;;14.48;79.25;99848.66;5075503;28;20192;-68
2022/10/25 03:05:55;;;;;;;15.33;7.37;;;;;;;14.47;79.27;99847.88;5075642;28;20188;-69
2022/10/25 03:08:22;;;;;;;14.47;7.70;;;;;;;14.40;79.64;99847.06;5075103;28;20703;-69
2022/10/25 03:10:51;;;;;;;15.47;8.07;;;;;;;14.42;79.65;99842.31;5075345;28;20260;-70
2022/10/25 03:13:17;;;;;;;14.17;7.67;;;;;;;14.43;79.34;99841.31;5075132;28;20180;-69
2022/10/25 03:15:45;;;;;;;11.77;7.60;;;;;;;14.42;79.54;99845.00;5075426;28;20249;-69
2022/10/25 03:18:12;;;;;;;19.87;8.20;;;;;;;14.35;80.27;99838.88;5075321;28;20192;-68
2022/10/25 03:20:39;;;;;;;15.90;7.60;;;;;;;14.31;79.75;99837.66;5075267;28;20245;-69
2022/10/25 03:23:05;;;;;;;15.70;8.90;;;;;;;14.29;80.48;99833.56;5075198;28;20265;-69
2022/10/25 03:25:32;;;;;;;14.73;8.10;;;;;;;14.23;79.95;99829.88;5074844;28;20253;-69
2022/10/25 03:28:01;;;;;;;18.27;7.73;;;;;;;14.17;79.74;99827.19;5074737;28;20220;-70
2022/10/25 03:30:28;;;;;;;16.37;8.53;;;;;;;14.15;80.22;99827.41;5059552;28;20233;-69
2022/10/25 03:32:55;;;;;;;12.93;7.57;;;;;;;14.13;79.58;99825.97;5075201;28;20200;-69
2022/10/25 03:35:23;;;;;;;18.17;8.40;;;;;;;14.09;80.00;99828.22;5075903;28;20260;-69
2022/10/25 03:37:50;;;;;;;17.40;7.80;;;;;;;14.07;80.38;99819.63;5075216;28;20196;-70
2022/10/25 03:40:17;;;;;;;16.27;8.23;;;;;;;13.99;79.87;99822.50;5075823;28;20241;-70
2022/10/25 03:42:44;;;;;;;24.03;8.73;;;;;;;14.00;80.52;99818.81;5074709;28;20633;-69
2022/10/25 03:45:12;;;;;;;18.20;8.37;;;;;;;14.01;80.16;99820.44;5075483;28;20196;-70
2022/10/25 03:47:39;;;;;;;25.33;9.23;;;;;;;13.96;79.93;99817.59;5074945;28;20265;-69
2022/10/25 03:50:08;;;;;;;28.97;10.30;;;;;;;13.93;80.03;99812.66;5073729;28;20196;-69
2022/10/25 03:52:34;;;;;;;32.23;9.30;;;;;;;13.92;80.23;99810.19;5074519;28;20261;-69
2022/10/25 03:55:01;;;;;;;34.03;10.03;;;;;;;13.90;79.94;99818.44;5074702;28;20283;-69
2022/10/25 03:57:28;;;;;;;26.07;9.63;;;;;;;13.88;80.19;99817.81;5074559;28;20556;-69
2022/10/25 03:59:56;;;;;;;28.33;9.57;;;;;;;13.89;80.23;99811.44;5074786;28;20573;-70
2022/10/25 04:02:24;;;;;;;35.80;11.10;;;;;;;13.90;80.27;99825.63;5074627;28;20287;-69
2022/10/25 04:04:51;;;;;;;38.43;10.10;;;;;;;13.88;80.26;99820.47;5075064;28;20253;-70
2022/10/25 04:07:18;;;;;;;40.10;10.50;;;;;;;13.90;80.02;99807.75;5074018;28;20723;-70
2022/10/25 04:09:45;;;;;;;31.03;11.47;;;;;;;13.91;80.08;99809.38;5074453;28;20199;-70
2022/10/25 04:12:12;;;;;;;45.00;11.67;;;;;;;13.94;80.61;99813.50;5074530;28;20281;-70
2022/10/25 04:14:39;;;;;;;34.17;11.47;;;;;;;13.90;80.63;99813.09;5074291;28;20192;-69
2022/10/25 04:17:05;;;;;;;46.83;11.13;;;;;;;13.90;80.88;99810.41;5073887;28;20660;-69
2022/10/25 04:19:33;;;;;;;23.83;10.00;;;;;;;13.87;80.85;99824.19;5074269;28;20265;-69
2022/10/25 04:22:01;;;;;;;33.47;10.60;;;;;;;13.77;80.79;99823.78;5075065;28;20529;-69
2022/10/25 04:24:27;;;;;;;33.43;10.70;;;;;;;13.77;81.10;99818.44;5074065;28;20196;-69
2022/10/25 04:26:54;;;;;;;43.83;13.17;;;;;;;13.77;81.18;99823.78;5074018;28;20192;-69
2022/10/25 04:29:21;;;;;;;41.20;12.40;;;;;;;13.74;81.38;99824.22;5063136;28;20188;-70
2022/10/25 04:31:47;;;;;;;35.23;10.87;;;;;;;13.74;81.63;99829.56;5069238;28;20192;-71
2022/10/25 04:34:14;;;;;;;40.73;11.70;;;;;;;13.73;81.97;99817.22;5073547;28;20253;-70
2022/10/25 04:36:42;;;;;;;26.60;11.53;;;;;;;13.75;81.72;99815.16;5073829;28;20196;-70
2022/10/25 04:39:09;;;;;;;43.60;13.10;;;;;;;13.73;81.31;99817.22;5073749;28;20632;-70
2022/10/25 04:41:36;;;;;;;31.13;12.50;;;;;;;13.74;81.25;99808.19;5074125;28;20607;-70
2022/10/25 04:44:03;;;;;;;44.27;12.33;;;;;;;13.73;81.61;99809.19;5073569;28;20253;-70
2022/10/25 04:46:30;;;;;;;29.07;11.73;;;;;;;13.72;81.34;99810.25;5073215;28;20214;-69
2022/10/25 04:48:57;;;;;;;29.27;12.23;;;;;;;13.73;81.04;99819.88;5073389;28;20587;-70
2022/10/25 04:51:23;;;;;;;27.90;11.07;;;;;;;13.69;81.46;99809.84;5074318;28;20192;-71
2022/10/25 04:53:53;;;;;;;37.40;11.57;;;;;;;13.67;81.17;99820.72;5072891;28;20191;-71
2022/10/25 04:56:19;;;;;;;31.97;13.30;;;;;;;13.70;81.32;99812.31;5073076;28;20721;-71
2022/10/25 04:58:46;;;;;;;30.60;11.53;;;;;;;13.76;80.63;99822.16;5073385;28;20200;-70
2022/10/25 05:01:15;;;;;;;33.17;12.30;;;;;;;13.78;80.38;99817.44;5073758;28;20249;-70
2022/10/25 05:03:42;;;;;;;37.60;13.73;;;;;;;13.83;80.37;99820.28;5073181;28;20192;-71
2022/10/25 05:06:11;;;;;;;37.23;13.47;;;;;;;13.85;79.91;99828.09;5073654;28;20196;-70
2022/10/25 05:08:39;;;;;;;44.73;14.70;;;;;;;13.86;80.19;99822.56;5072489;28;20216;-70
2022/10/25 05:11:08;;;;;;;39.47;14.33;;;;;;;13.90;79.61;99818.44;5072885;28;20319;-70
2022/10/25 05:13:36;;;;;;;52.33;15.13;;;;;;;13.94;79.70;99814.31;5072453;28;20196;-70
2022/10/25 05:16:04;;;;;;;49.93;15.23;;;;;;;13.98;79.62;99814.72;5072918;28;20195;-71
2022/10/25 05:18:31;;;;;;;100.23;18.17;;;;;;;13.90;80.33;99817.59;5072909;28;20226;-71
2022/10/25 05:20:59;;;;;;;57.10;14.90;;;;;;;13.98;81.03;99820.06;5073410;28;20249;-71
2022/10/25 05:23:28;;;;;;;48.63;13.30;;;;;;;14.16;82.07;99826.38;5072664;28;20200;-68
2022/10/25 05:26:01;;;;;;;43.23;13.67;;;;;;;14.38;81.46;99830.41;5072540;28;20195;-65
2022/10/25 05:28:29;;;;;;;20.43;7.60;;;;;;;14.89;86.78;99822.31;5072827;28;20196;-65
2022/10/25 05:30:55;;;;;;;50.23;10.83;;;;;;;15.78;84.22;99832.56;5072626;28;20273;-65
2022/10/25 05:33:22;;;;;;;26.13;9.60;;;;;;;16.53;73.49;99836.66;5072303;28;20245;-64
2022/10/25 05:35:49;;;;;;;28.13;8.60;;;;;;;16.84;75.61;99833.78;5054748;28;20269;-63
2022/10/25 05:38:16;;;;;;;23.70;9.47;;;;;;;17.22;73.97;99846.84;5054968;28;20204;-63
2022/10/25 05:40:42;;;;;;;41.60;9.50;;;;;;;17.55;72.14;99841.78;5065894;28;20196;-63
2022/10/25 05:43:09;;;;;;;53.43;10.83;;;;;;;18.05;69.37;99853.72;5072223;28;20196;-62
2022/10/25 05:45:37;;;;;;;26.70;8.83;;;;;;;18.64;69.61;99858.75;5071918;28;20191;-63
2022/10/25 05:48:04;;;;;;;30.83;9.97;;;;;;;19.31;66.53;99861.41;5072341;28;20285;-63
2022/10/25 05:50:30;;;;;;;31.60;9.93;;;;;;;19.81;59.76;99867.63;5060019;28;20212;-65
2022/10/25 05:52:57;;;;;;;22.67;10.00;;;;;;;20.03;58.52;99878.47;5051963;28;20193;-66
2022/10/25 05:55:24;;;;;;;35.07;9.93;;;;;;;20.14;59.82;99870.28;5052011;28;20195;-65
2022/10/25 05:57:51;;;;;;;29.60;8.70;;;;;;;20.11;56.43;99888.88;5053128;28;20620;-65
2022/10/25 06:00:18;;;;;;;30.20;9.83;;;;;;;20.18;57.87;99878.72;5052214;28;20575;-64
2022/10/25 06:02:46;;;;;;;20.63;8.63;;;;;;;20.32;58.51;99875.41;5052648;28;20809;-65
2022/10/25 06:05:13;;;;;;;20.87;9.37;;;;;;;20.12;56.43;99882.41;5064574;28;20195;-66
2022/10/25 06:07:40;;;;;;;32.33;9.10;;;;;;;19.62;57.74;99879.72;5067956;28;20270;-66
2022/10/25 06:10:07;;;;;;;73.27;11.63;;;;;;;19.25;58.19;99893.91;5052069;28;20247;-65
2022/10/25 06:12:34;;;;;;;35.70;16.53;;;;;;;18.97;60.25;99888.47;5053465;28;20220;-65
2022/10/25 06:15:01;;;;;;;35.17;15.30;;;;;;;18.84;60.98;99881.53;5050742;28;20192;-65
2022/10/25 06:17:27;;;;;;;28.83;12.40;;;;;;;18.76;60.49;99889.16;5050627;28;20188;-65
2022/10/25 06:19:55;;;;;;;21.87;11.57;;;;;;;18.66;61.25;99883.59;5051820;28;20202;-64
2022/10/25 06:22:22;;;;;;;45.97;12.87;;;;;;;18.52;61.46;99885.72;5052074;28;20189;-64
2022/10/25 06:24:49;;;;;;;32.63;10.33;;;;;;;18.47;66.11;99884.78;5056774;28;20188;-67
2022/10/25 06:27:15;;;;;;;33.93;11.03;;;;;;;18.73;62.08;99893.13;5069258;28;20200;-67
2022/10/25 06:29:42;;;;;;;32.30;10.40;;;;;;;19.24;59.95;99903.03;5062430;28;20250;-65
2022/10/25 06:32:09;;;;;;;33.77;8.83;;;;;;;19.58;57.92;99904.72;5059429;28;20261;-65
2022/10/25 06:34:35;;;;;;;29.47;9.47;;;;;;;19.59;57.98;99906.34;5062176;28;20203;-66
2022/10/25 06:37:03;;;;;;;32.63;10.37;;;;;;;19.59;58.27;99900.94;5060604;28;20222;-65
2022/10/25 06:39:30;;;;;;;21.27;8.63;;;;;;;19.98;57.35;99905.38;5061204;28;20196;-65
2022/10/25 06:41:57;;;;;;;28.13;8.17;;;;;;;20.24;57.28;99910.09;5062222;28;20196;-65
2022/10/25 06:44:23;;;;;;;26.57;8.73;;;;;;;20.11;57.88;99905.88;5066377;28;20254;-65
2022/10/25 06:46:50;;;;;;;12.37;6.70;;;;;;;20.42;57.36;99899.03;5071780;28;20261;-62
2022/10/25 06:49:17;;;;;;;19.07;7.33;;;;;;;20.40;54.68;99903.84;5070290;28;20742;-63
2022/10/25 06:51:43;;;;;;;47.37;10.77;;;;;;;20.31;55.20;99903.44;5071603;28;20248;-63
2022/10/25 06:54:11;;;;;;;33.93;9.00;;;;;;;20.36;54.85;99900.00;5059149;28;20200;-63
2022/10/25 06:56:38;;;;;;;23.90;9.83;;;;;;;20.35;55.02;99895.69;5051752;28;20247;-64
2022/10/25 06:59:09;;;;;;;25.27;8.33;;;;;;;20.23;55.43;99895.81;5056863;28;20257;-61
2022/10/25 07:01:36;;;;;;;22.40;7.77;;;;;;;20.24;56.40;99888.50;5059066;28;20189;-61
2022/10/25 07:04:03;;;;;;;22.20;7.40;;;;;;;20.11;56.27;99888.88;5051508;28;20197;-62
2022/10/25 07:06:34;;;;;;;14.30;6.93;;;;;;;20.08;56.07;99883.94;5051272;28;20727;-63
2022/10/25 07:09:02;;;;;;;24.63;7.80;;;;;;;20.18;55.91;99878.72;5051620;28;20300;-62
2022/10/25 07:11:32;;;;;;;25.10;7.97;;;;;;;20.01;56.00;99864.44;5051565;28;20224;-61
2022/10/25 07:14:00;;;;;;;16.53;7.23;;;;;;;20.17;56.15;99877.91;5051338;28;20712;-62
2022/10/25 07:16:28;;;;;;;11.23;7.03;;;;;;;20.23;56.31;99876.94;5051520;28;20619;-65
2022/10/25 07:18:59;;;;;;;212.27;21.57;;;;;;;20.34;56.08;99877.88;5051819;28;20193;-64
2022/10/25 07:21:26;;;;;;;14.17;6.70;;;;;;;20.93;56.09;99868.06;5051330;28;20652;-63
2022/10/25 07:23:53;;;;;;;23.43;6.90;;;;;;;21.66;53.52;99871.75;5051232;28;20734;-64
2022/10/25 07:26:21;;;;;;;63.63;10.20;;;;;;;22.21;51.61;99874.88;5067519;28;20192;-64
2022/10/25 07:28:52;;;;;;;28.93;7.80;;;;;;;22.62;49.69;99868.59;5075436;28;20281;-63
2022/10/25 07:31:21;;;;;;;15.87;7.53;;;;;;;23.18;47.89;99875.81;5075164;28;20184;-63
2022/10/25 07:33:47;;;;;;;24.10;6.77;;;;;;;23.66;46.53;99871.81;5075283;28;20277;-63
2022/10/25 07:36:14;;;;;;;26.97;6.30;;;;;;;23.87;44.73;99874.25;5072536;28;20204;-64
2022/10/25 07:38:41;;;;;;;64.70;9.40;;;;;;;23.81;46.39;99864.47;5064845;28;20231;-64
2022/10/25 07:41:09;;;;;;;22.87;6.13;;;;;;;24.03;46.08;99858.78;5063110;28;20202;-65
2022/10/25 07:43:36;;;;;;;23.77;6.37;;;;;;;24.15;44.18;99854.69;5075217;28;20252;-65
2022/10/25 07:46:06;;;;;;;14.70;5.20;;;;;;;24.27;45.38;99855.22;5074426;28;20196;-66
2022/10/25 07:48:33;;;;;;;36.03;6.93;;;;;;;24.26;44.52;99853.56;5074465;28;20773;-66
2022/10/25 07:51:03;;;;;;;97.90;12.33;;;;;;;24.47;44.82;99851.59;5071234;28;20732;-65
2022/10/25 07:53:30;;;;;;;15.33;5.43;;;;;;;24.58;42.20;99851.28;5074425;28;20197;-65
2022/10/25 07:55:57;;;;;;;16.07;5.83;;;;;;;24.26;42.87;99850.84;5062991;28;20244;-63
2022/10/25 07:58:23;;;;;;;12.93;6.00;;;;;;;24.25;43.81;99848.41;5056729;28;20675;-64
2022/10/25 08:00:50;;;;;;;54.07;8.40;;;;;;;24.53;43.06;99843.16;5054444;28;20252;-63
2022/10/25 08:03:18;;;;;;;17.30;5.77;;;;;;;24.86;42.81;99845.19;5055078;28;20199;-64
2022/10/25 08:05:46;;;;;;;29.13;6.67;;;;;;;25.24;42.47;99840.06;5054111;28;20737;-64
2022/10/25 08:08:14;;;;;;;16.77;5.67;;;;;;;25.44;40.54;99834.50;5060194;28;20223;-64
2022/10/25 08:10:42;;;;;;;41.37;7.00;;;;;;;25.66;38.88;99838.41;5057204;28;20203;-64
2022/10/25 08:13:09;;;;;;;17.47;6.07;;;;;;;25.56;39.49;99837.66;5073147;28;20200;-63
2022/10/25 08:15:35;;;;;;;22.90;7.00;;;;;;;25.81;40.54;99823.84;5070397;28;20254;-64
2022/10/25 08:18:03;;;;;;;13.57;5.90;;;;;;;25.82;39.76;99834.44;5053781;28;20249;-63
2022/10/25 08:20:31;;;;;;;13.00;5.43;;;;;;;25.99;39.20;99825.84;5054065;28;20200;-62
2022/10/25 08:22:58;;;;;;;13.13;6.03;;;;;;;25.86;39.27;99831.94;5054695;28;20250;-63
2022/10/25 08:25:25;;;;;;;15.77;4.87;;;;;;;25.68;39.65;99827.22;5068160;28;20188;-65
2022/10/25 08:27:51;;;;;;;19.83;7.07;;;;;;;25.71;38.60;99827.47;5061625;28;20189;-64
2022/10/25 08:30:18;;;;;;;26.33;6.80;;;;;;;25.86;39.51;99821.88;5066032;28;20272;-64
2022/10/25 08:32:45;;;;;;;21.40;5.93;;;;;;;26.00;39.54;99822.03;5062865;28;20192;-64
2022/10/25 08:35:12;;;;;;;13.77;5.33;;;;;;;26.30;41.47;99821.69;5063763;28;20580;-65
2022/10/25 08:37:40;;;;;;;15.50;5.80;;;;;;;26.67;37.99;99819.06;5062164;28;20189;-64
2022/10/25 08:40:13;;;;;;;12.97;5.60;;;;;;;26.69;36.77;99820.41;5062058;28;20196;-64
2022/10/25 08:42:54;;;;;;;18.37;5.70;;;;;;;26.70;36.83;99813.03;5062524;28;20181;-64
2022/10/25 08:45:26;;;;;;;23.53;6.33;;;;;;;26.95;35.70;99812.69;5062117;28;20193;-64
2022/10/25 08:47:56;;;;;;;24.57;6.50;;;;;;;27.12;36.24;99802.84;5063296;28;20254;-64
2022/10/25 08:50:30;;;;;;;14.77;6.40;;;;;;;27.18;35.33;99800.84;5060405;28;20205;-65
2022/10/25 08:53:01;;;;;;;11.97;5.47;;;;;;;27.35;34.93;99787.50;5063078;28;20180;-65
2022/10/25 08:55:32;;;;;;;28.13;6.57;;;;;;;27.47;35.01;99787.84;5053105;28;20193;-65
2022/10/25 08:58:00;;;;;;;37.70;7.10;;;;;;;27.54;35.48;99785.56;5052802;28;20186;-64
2022/10/25 09:00:35;;;;;;;16.40;5.90;;;;;;;27.77;35.29;99771.75;5052109;28;20193;-64
2022/10/25 09:03:04;;;;;;;21.80;6.37;;;;;;;28.08;34.46;99782.94;5052451;28;20196;-76
2022/10/25 09:05:38;;;;;;;16.47;6.87;;;;;;;28.21;34.28;99776.66;5052084;28;20189;-71
2022/10/25 09:08:35;;;;;;;19.20;5.43;;;;;;;28.49;33.74;99772.81;5052420;28;20184;-70
2022/10/25 09:11:09;;;;;;;18.70;6.50;;;;;;;28.51;33.04;99767.84;5055400;28;20220;-73
2022/10/25 09:13:50;;;;;;;12.83;5.80;;;;;;;28.65;33.63;99763.97;5055590;28;20181;-70
2022/10/25 09:16:18;;;;;;;19.53;6.30;;;;;;;28.67;32.71;99758.22;5052709;28;20228;-69
2022/10/25 09:18:50;;;;;;;20.47;6.37;;;;;;;28.58;32.68;99754.59;5052904;28;20633;-66
2022/10/25 09:21:21;;;;;;;26.50;6.63;;;;;;;28.55;32.65;99755.19;5053135;28;20247;-71
2022/10/25 09:23:57;;;;;;;20.70;6.07;;;;;;;28.58;32.85;99749.13;5053820;28;20195;-68
2022/10/25 09:26:34;;;;;;;18.80;6.43;;;;;;;28.69;32.94;99750.50;5067778;28;20183;-70
2022/10/25 09:29:04;;;;;;;16.50;5.87;;;;;;;28.76;32.10;99734.47;5072621;28;20253;-76
2022/10/25 09:31:37;;;;;;;17.30;6.40;;;;;;;28.46;32.39;99730.50;5064560;28;20185;-68
2022/10/25 09:34:08;;;;;;;32.10;6.43;;;;;;;28.30;33.04;99725.66;5052377;28;20188;-72
2022/10/25 09:36:40;;;;;;;15.13;5.80;;;;;;;28.47;33.62;99717.66;5059580;28;20706;-75
2022/10/25 09:39:15;;;;;;;20.57;6.87;;;;;;;28.40;32.69;99714.47;5072189;28;20630;-70
2022/10/25 09:41:46;;;;;;;16.13;6.17;;;;;;;28.34;32.87;99694.66;5071957;28;20187;-69
2022/10/25 09:44:17;;;;;;;21.17;6.33;;;;;;;28.36;32.78;99708.84;5068965;28;20238;-69
2022/10/25 09:46:49;;;;;;;25.43;6.67;;;;;;;28.21;33.34;99695.50;5067166;28;20633;-69
2022/10/25 09:49:25;;;;;;;16.50;6.10;;;;;;;28.31;32.74;99689.81;5067593;28;20215;-72
2022/10/25 09:52:00;;;;;;;17.37;6.30;;;;;;;28.36;33.18;99694.34;5089967;28;20235;-69
2022/10/25 09:54:34;;;;;;;22.87;6.03;;;;;;;28.46;33.00;99684.03;5076067;28;20651;-67
2022/10/25 09:57:01;;;;;;;23.57;6.43;;;;;;;28.57;33.07;99676.41;5067526;28;20325;-68
2022/10/25 09:59:28;;;;;;;28.30;6.87;;;;;;;28.49;32.20;99671.66;5071555;28;20199;-69
2022/10/25 10:01:55;;;;;;;22.80;6.27;;;;;;;28.36;31.98;99677.94;5080425;28;20194;-69
2022/10/25 10:04:33;;;;;;;24.87;6.23;;;;;;;28.01;33.05;99667.81;5073408;28;20191;-67
2022/10/25 10:07:05;;;;;;;27.10;7.07;;;;;;;27.96;33.37;99666.00;5059990;28;20249;-69
2022/10/25 10:09:36;;;;;;;18.87;5.93;;;;;;;27.97;33.01;99661.34;5064953;28;20310;-71
2022/10/25 10:12:05;;;;;;;19.20;5.23;;;;;;;28.04;34.11;99657.06;5072454;28;20227;-69
2022/10/25 10:14:37;;;;;;;26.33;8.90;;;;;;;28.19;36.87;99650.47;5071520;28;20192;-68
2022/10/25 10:17:07;;;;;;;23.20;6.53;;;;;;;28.22;34.43;99645.19;5072374;28;20222;-69
2022/10/25 10:19:33;;;;;;;26.83;6.90;;;;;;;28.24;34.40;99642.16;5052063;28;20193;-73
2022/10/25 10:22:02;;;;;;;14.20;5.93;;;;;;;28.26;33.42;99648.13;5051424;28;20333;-74
2022/10/25 10:24:31;;;;;;;19.93;6.50;;;;;;;28.26;33.23;99642.66;5052395;28;20246;-69
2022/10/25 10:27:00;;;;;;;22.93;6.23;;;;;;;28.23;32.71;99644.09;5071289;28;20192;-66
2022/10/25 10:29:28;;;;;;;20.50;6.60;;;;;;;28.23;32.73;99643.28;5071850;28;20212;-67
2022/10/25 10:31:59;;;;;;;21.83;6.57;;;;;;;28.08;34.00;99638.13;5072067;28;20203;-68
2022/10/25 10:34:29;;;;;;;36.93;7.53;;;;;;;28.11;33.56;99632.06;5066302;28;20709;-68
2022/10/25 10:37:05;;;;;;;20.57;7.40;;;;;;;28.04;32.70;99635.22;5051485;28;20648;-67
2022/10/25 10:39:32;;;;;;;24.57;7.80;;;;;;;27.85;32.98;99631.81;5051470;28;20246;-68
2022/10/25 10:42:13;;;;;;;28.70;10.17;;;;;;;27.72;33.25;99629.06;5051594;28;20245;-71
2022/10/25 10:44:40;;;;;;;44.53;9.20;;;;;;;27.77;33.84;99631.69;5055617;28;20606;-68
2022/10/25 10:47:11;;;;;;;34.07;12.50;;;;;;;27.80;34.58;99622.88;5070793;28;20196;-68
2022/10/25 10:49:40;;;;;;;32.47;9.57;;;;;;;27.82;33.63;99626.97;5071471;28;20691;-66
2022/10/25 10:52:27;;;;;;;28.60;10.33;;;;;;;27.88;34.04;99620.28;5071263;28;20200;-66
2022/10/25 10:54:55;;;;;;;31.50;12.70;;;;;;;27.90;33.97;99612.59;5072746;28;20255;-69
2022/10/25 10:57:29;;;;;;;31.97;11.30;;;;;;;28.02;33.88;99623.00;5071211;28;20199;-69
2022/10/25 10:59:57;;;;;;;26.57;9.87;;;;;;;28.02;33.75;99623.78;5073466;28;20202;-68
2022/10/25 11:02:30;;;;;;;34.33;11.27;;;;;;;28.13;33.80;99618.94;5086908;28;20191;-68
2022/10/25 11:04:56;;;;;;;36.87;8.90;;;;;;;28.18;33.17;99613.34;5095773;28;20608;-67
2022/10/25 11:07:30;;;;;;;26.87;9.97;;;;;;;28.20;33.88;99616.56;5095415;28;20199;-68
2022/10/25 11:10:20;;;;;;;28.00;9.57;;;;;;;28.24;32.94;99620.28;5095685;28;20207;-69
2022/10/25 11:13:05;;;;;;;49.80;15.30;;;;;;;28.20;34.42;99606.44;5095975;28;20223;-68
2022/10/25 11:15:36;;;;;;;25.80;7.83;;;;;;;27.94;32.59;99612.78;5095710;28;20659;-69
2022/10/25 11:18:06;;;;;;;28.70;7.40;;;;;;;27.57;33.25;99602.09;5093066;28;20184;-70
2022/10/25 11:20:43;;;;;;;24.17;7.90;;;;;;;27.54;33.31;99599.94;5062188;28;20667;-67
2022/10/25 11:23:16;;;;;;;35.20;7.67;;;;;;;27.46;33.67;99601.47;5055255;28;20235;-66
2022/10/25 11:25:51;;;;;;;33.13;7.87;;;;;;;27.43;34.05;99587.63;5064105;28;20597;-67
2022/10/25 11:28:34;;;;;;;23.97;7.67;;;;;;;27.59;34.06;99594.38;5075192;28;20187;-67
2022/10/25 11:31:11;;;;;;;27.53;7.40;;;;;;;27.72;33.85;99583.47;5074901;28;20269;-69
2022/10/25 11:33:47;;;;;;;23.70;7.00;;;;;;;27.42;33.39;99578.63;5075219;28;20226;-70